Time;durP1;ratioP1;P1;durP2;ratioP2;P2;SDS_P1;SDS_P2;PMS_P1;PMS_P2;Temp;Humidity;BMP_temperature;BMP_pressure;BME280_temperature;BME280_humidity;BME280_pressure;Samples;Min_cycle;Max_cycle;Signal;HPM_P1;HPM_P2
2022/04/12 00:00:10;;;;;;;;;;;;;;;6.21;54.90;100258.78;5069581;28;19927;-82
2022/04/12 00:02:37;;;;;;;;;;;;;;;6.20;55.11;100262.69;5068757;28;19920;-82
2022/04/12 00:05:03;;;;;;;;;;;;;;;6.20;54.92;100259.16;5068872;28;20363;-80
2022/04/12 00:07:28;;;;;;;;;;;;;;;6.19;55.05;100261.13;5068582;28;19932;-80
2022/04/12 00:09:54;;;;;;;;;;;;;;;6.20;55.04;100262.69;5069031;28;19920;-80
2022/04/12 00:12:19;;;;;;;;;;;;;;;6.19;54.99;100258.38;5049978;28;19924;-80
2022/04/12 00:14:45;;;;;;;;;;;;;;;6.16;55.44;100256.44;5069108;28;19920;-80
2022/04/12 00:19:55;;;;;;;;;;;;;;;6.16;56.24;100261.94;5069573;28;19920;-80
2022/04/12 00:22:20;;;;;;;;;;;;;;;6.14;56.49;100252.50;5070300;28;20015;-80
2022/04/12 00:24:45;;;;;;;;;;;;;;;6.11;56.43;100253.31;5057700;28;19995;-82
2022/04/12 00:27:11;;;;;;;;;;;;;;;6.10;56.95;100249.78;5069704;28;20561;-82
2022/04/12 00:29:36;;;;;;;;;;;;;;;6.09;57.33;100237.97;5069935;28;19921;-82
2022/04/12 00:32:02;;;;;;;;;;;;;;;6.04;57.57;100241.16;5068994;28;19928;-82
2022/04/12 00:34:29;;;;;;;;;;;;;;;6.04;57.78;100243.13;5069407;28;20010;-82
2022/04/12 00:36:54;;;;;;;;;;;;;;;6.01;58.19;100239.19;5070122;28;19994;-82
2022/04/12 00:39:19;;;;;;;;;;;;;;;6.01;58.60;100232.91;5070491;28;20381;-82
2022/04/12 00:41:45;;;;;;;;;;;;;;;5.98;58.86;100229.00;5069523;28;20322;-82
2022/04/12 00:44:10;;;;;;;;;;;;;;;5.98;59.05;100229.00;5071279;28;19920;-82
2022/04/12 00:46:36;;;;;;;;;;;;;;;5.96;59.24;100230.56;5069677;28;19921;-82
2022/04/12 00:49:01;;;;;;;;;;;;;;;5.92;59.68;100224.28;5069223;28;19921;-82
2022/04/12 00:51:27;;;;;;;;;;;;;;;5.95;59.72;100220.72;5069407;28;19946;-82
2022/04/12 00:53:52;;;;;;;;;;;;;;;5.93;60.29;100225.88;5070152;28;19921;-82
2022/04/12 00:56:18;;;;;;;;;;;;;;;5.90;60.68;100216.44;5069959;28;19924;-82
2022/04/12 00:58:46;;;;;;;;;;;;;;;5.89;61.11;100219.59;5069192;28;20058;-82
2022/04/12 01:03:47;;;;;;;;;;;;;;;5.90;61.74;100216.44;4912638;26;20281;-80
2022/04/12 01:06:13;;;;;;;;;;;;;;;5.86;62.22;100214.88;5072832;28;19955;-82
2022/04/12 01:08:38;;;;;;;;;;;;;;;5.83;62.29;100221.94;5080637;28;19920;-82
2022/04/12 01:11:06;;;;;;;;;;;;;;;5.81;62.54;100213.31;5071571;28;19924;-82
2022/04/12 01:13:32;;;;;;;;;;;;;;;5.80;62.79;100210.94;5075791;28;19917;-83
2022/04/12 01:15:57;;;;;;;;;;;;;;;5.79;63.42;100217.63;5071855;28;20392;-82
2022/04/12 01:18:23;;;;;;;;;;;;;;;5.75;63.34;100211.34;5073064;28;19966;-82
2022/04/12 01:20:48;;;;;;;;;;;;;;;5.71;63.44;100202.34;5071490;28;20008;-82
2022/04/12 01:23:23;;;;;;;;;;;;;;;5.68;63.81;100203.13;5073236;28;19924;-82
2022/04/12 01:25:49;;;;;;;;;;;;;;;5.64;64.07;100198.44;5068487;28;20381;-82
2022/04/12 01:28:14;;;;;;;;;;;;;;;5.61;64.18;100198.47;5072864;28;19927;-82
2022/04/12 01:30:39;;;;;;;;;;;;;;;5.57;64.36;100203.97;5074220;28;19932;-82
2022/04/12 01:33:05;;;;;;;;;;;;;;;5.56;64.61;100196.13;5070371;28;19935;-82
2022/04/12 01:35:30;;;;;;;;;;;;;;;5.53;64.92;100200.47;5067883;28;20414;-82
2022/04/12 01:37:56;;;;;;;;;;;;;;;5.52;64.79;100201.63;5069945;28;19920;-82
2022/04/12 01:40:22;;;;;;;;;;;;;;;5.50;64.81;100190.22;5057154;28;20015;-82
2022/04/12 01:42:47;;;;;;;;;;;;;;;5.50;64.62;100197.72;5070825;28;20015;-83
2022/04/12 01:45:12;;;;;;;;;;;;;;;5.50;64.59;100206.75;5072825;28;20301;-82
2022/04/12 01:47:38;;;;;;;;;;;;;;;5.47;64.64;100202.03;5082169;28;19935;-82
2022/04/12 01:50:04;;;;;;;;;;;;;;;5.45;64.60;100195.38;5075066;28;19928;-82
2022/04/12 01:52:29;;;;;;;;;;;;;;;5.43;64.81;100200.47;5073395;28;20450;-82
2022/04/12 01:54:54;;;;;;;;;;;;;;;5.42;64.51;100198.94;5071467;28;19947;-82
2022/04/12 01:57:20;;;;;;;;;;;;;;;5.40;64.84;100201.28;5072041;28;20335;-82
2022/04/12 01:59:45;;;;;;;;;;;;;;;5.40;64.73;100204.03;5071826;28;19921;-82
2022/04/12 02:02:11;;;;;;;;;;;;;;;5.38;64.92;100201.66;5042470;28;19971;-82
2022/04/12 02:04:36;;;;;;;;;;;;;;;5.37;64.52;100182.84;5058250;28;19972;-82
2022/04/12 02:07:03;;;;;;;;;;;;;;;5.38;64.61;100193.41;5032715;28;20019;-81
2022/04/12 02:09:28;;;;;;;;;;;;;;;5.41;64.05;100189.09;5067939;28;19975;-82
2022/04/12 02:11:55;;;;;;;;;;;;;;;5.41;64.07;100181.63;5049702;28;20292;-82
2022/04/12 02:14:20;;;;;;;;;;;;;;;5.42;63.93;100174.94;5062607;28;19924;-83
2022/04/12 02:16:46;;;;;;;;;;;;;;;5.41;64.01;100178.88;5053191;28;20024;-82
2022/04/12 02:19:11;;;;;;;;;;;;;;;5.39;64.17;100186.75;5051541;28;20270;-82
2022/04/12 02:21:36;;;;;;;;;;;;;;;5.36;64.20;100184.78;5052615;28;20364;-82
2022/04/12 02:24:02;;;;;;;;;;;;;;;5.34;64.31;100184.38;5061293;28;20325;-82
2022/04/12 02:26:27;;;;;;;;;;;;;;;5.35;64.10;100190.69;5056449;28;19975;-82
2022/04/12 02:28:53;;;;;;;;;;;;;;;5.32;64.32;100181.28;5032440;28;20003;-82
2022/04/12 02:31:18;;;;;;;;;;;;;;;5.29;64.59;100184.81;5030736;28;19964;-82
2022/04/12 02:33:43;;;;;;;;;;;;;;;5.26;64.73;100182.84;5050473;28;19935;-82
2022/04/12 02:36:09;;;;;;;;;;;;;;;5.25;65.08;100189.56;5049539;28;20293;-82
2022/04/12 02:38:34;;;;;;;;;;;;;;;5.25;65.05;100191.50;5052270;28;19996;-82
2022/04/12 02:40:59;;;;;;;;;;;;;;;5.23;65.23;100189.16;5051156;28;20470;-82
2022/04/12 02:43:25;;;;;;;;;;;;;;;5.22;65.67;100181.31;5065764;28;19925;-82
2022/04/12 02:45:50;;;;;;;;;;;;;;;5.19;66.05;100193.88;5051985;28;19917;-82
2022/04/12 02:48:16;;;;;;;;;;;;;;;5.17;66.00;100182.50;5051091;28;19968;-82
2022/04/12 02:50:41;;;;;;;;;;;;;;;5.15;66.01;100188.38;5050784;28;19920;-82
2022/04/12 02:53:07;;;;;;;;;;;;;;;5.13;66.42;100189.97;5050349;28;19921;-82
2022/04/12 02:55:32;;;;;;;;;;;;;;;5.10;66.56;100182.50;5052258;28;20427;-82
2022/04/12 02:57:57;;;;;;;;;;;;;;;5.07;66.75;100186.03;5050084;28;19980;-82
2022/04/12 03:00:23;;;;;;;;;;;;;;;5.06;67.15;100187.22;5032158;28;19925;-82
2022/04/12 03:02:48;;;;;;;;;;;;;;;5.04;67.38;100186.84;5052551;28;20298;-82
2022/04/12 03:05:14;;;;;;;;;;;;;;;4.98;67.81;100188.41;5056713;28;20407;-81
2022/04/12 03:07:39;;;;;;;;;;;;;;;4.95;67.86;100176.25;5049184;28;19924;-82
2022/04/12 03:10:05;;;;;;;;;;;;;;;4.96;68.01;100179.78;5055676;28;20373;-81
2022/04/12 03:12:30;;;;;;;;;;;;;;;4.95;68.52;100175.47;5029854;28;19951;-82
2022/04/12 03:14:56;;;;;;;;;;;;;;;4.94;68.84;100176.63;5062631;28;19921;-82
2022/04/12 03:17:21;;;;;;;;;;;;;;;4.95;69.08;100184.50;5065771;28;20023;-81
2022/04/12 03:19:47;;;;;;;;;;;;;;;4.87;69.29;100179.41;5032989;28;19931;-82
2022/04/12 03:22:13;;;;;;;;;;;;;;;4.88;69.78;100175.47;5049817;28;19925;-81
2022/04/12 03:24:38;;;;;;;;;;;;;;;4.87;69.92;100182.16;5033861;28;19921;-82
2022/04/12 03:27:13;;;;;;;;;;;;;;;4.87;69.94;100182.16;5033034;28;19921;-81
2022/04/12 03:29:39;;;;;;;;;;;;;;;4.84;70.50;100185.69;5033308;28;20332;-82
2022/04/12 03:32:04;;;;;;;;;;;;;;;4.82;70.81;100190.78;5049981;28;19921;-81
2022/04/12 03:34:30;;;;;;;;;;;;;;;4.78;71.02;100196.28;5054394;28;19920;-80
2022/04/12 03:36:55;;;;;;;;;;;;;;;4.75;70.86;100188.06;5050475;28;19925;-80
2022/04/12 03:39:21;;;;;;;;;;;;;;;4.73;71.04;100191.22;5052790;28;19925;-80
2022/04/12 03:41:47;;;;;;;;;;;;;;;4.72;71.16;100199.84;5048576;28;19920;-80
2022/04/12 03:44:13;;;;;;;;;;;;;;;4.62;71.31;100196.69;5056056;28;19924;-80
2022/04/12 03:46:38;;;;;;;;;;;;;;;4.62;71.03;100196.69;5066270;28;19920;-80
2022/04/12 03:49:03;;;;;;;;;;;;;;;4.61;71.22;100192.38;5049658;28;20037;-80
2022/04/12 03:51:29;;;;;;;;;;;;;;;4.60;71.73;100190.03;5050433;28;19972;-80
2022/04/12 03:53:54;;;;;;;;;;;;;;;4.57;71.32;100194.34;5035726;28;20474;-80
2022/04/12 03:56:20;;;;;;;;;;;;;;;4.53;72.05;100201.03;5055788;28;20424;-80
2022/04/12 03:58:45;;;;;;;;;;;;;;;4.52;72.33;100197.50;5032019;28;19928;-80
2022/04/12 04:01:11;;;;;;;;;;;;;;;4.47;72.26;100203.38;5045713;28;20011;-80
2022/04/12 04:03:36;;;;;;;;;;;;;;;4.49;72.48;100206.50;5036529;28;20012;-80
2022/04/12 04:06:02;;;;;;;;;;;;;;;4.40;72.59;100203.38;5028002;28;20028;-80
2022/04/12 04:08:28;;;;;;;;;;;;;;;4.33;72.62;100200.59;5031882;28;19921;-80
2022/04/12 04:10:53;;;;;;;;;;;;;;;4.36;72.32;100202.59;5026517;28;19928;-80
2022/04/12 04:13:19;;;;;;;;;;;;;;;4.38;71.99;100210.41;5030329;28;19943;-80
2022/04/12 04:15:45;;;;;;;;;;;;;;;4.38;72.14;100210.41;5029516;28;20308;-80
2022/04/12 04:18:11;;;;;;;;;;;;;;;4.38;71.79;100216.69;5030060;28;20429;-81
2022/04/12 04:20:37;;;;;;;;;;;;;;;4.35;72.24;100212.00;5029666;28;19928;-80
2022/04/12 04:23:02;;;;;;;;;;;;;;;4.33;72.78;100208.84;5029453;28;19921;-80
2022/04/12 04:25:28;;;;;;;;;;;;;;;4.36;72.53;100219.06;5037785;28;19924;-81
2022/04/12 04:27:54;;;;;;;;;;;;;;;4.37;72.41;100219.84;5014385;28;19921;-81
2022/04/12 04:30:19;;;;;;;;;;;;;;;4.35;72.78;100222.97;5029119;28;19922;-80
2022/04/12 04:32:45;;;;;;;;;;;;;;;4.37;72.70;100220.63;5011367;28;19933;-80
2022/04/12 04:35:10;;;;;;;;;;;;;;;4.42;72.51;100222.19;5031954;28;20015;-80
2022/04/12 04:37:45;;;;;;;;;;;;;;;4.46;72.30;100226.50;5031242;28;19967;-80
2022/04/12 04:40:14;;;;;;;;;;;;;;;4.51;72.30;100237.13;5034202;28;19928;-80
2022/04/12 04:42:40;;;;;;;;;;;;;;;4.53;72.03;100229.25;5027838;28;19922;-80
2022/04/12 04:45:06;;;;;;;;;;;;;;;4.55;71.74;100221.44;5033503;28;19952;-80
2022/04/12 04:47:31;;;;;;;;;;;;;;;4.58;71.92;100234.38;5029865;28;19921;-81
2022/04/12 04:49:57;;;;;;;;;;;;;;;4.59;71.95;100226.91;5028016;28;20025;-81
2022/04/12 04:52:23;;;;;;;;;;;;;;;4.65;71.70;100231.63;5020891;28;19967;-81
2022/04/12 04:54:48;;;;;;;;;;;;;;;4.69;71.58;100242.63;5031126;28;20408;-80
2022/04/12 04:57:14;;;;;;;;;;;;;;;4.77;71.57;100243.44;5023041;28;19959;-80
2022/04/12 04:59:39;;;;;;;;;;;;;;;4.81;71.70;100244.22;5030703;28;19921;-80
2022/04/12 05:02:04;;;;;;;;;;;;;;;4.86;71.91;100247.31;5031416;23;19928;-80
2022/04/12 05:04:30;;;;;;;;;;;;;;;4.93;70.84;100252.06;5049089;28;19924;-80
2022/04/12 05:06:56;;;;;;;;;;;;;;;4.95;70.68;100260.69;5029003;28;19921;-80
2022/04/12 05:09:21;;;;;;;;;;;;;;;4.99;70.73;100253.22;5033469;28;19932;-80
2022/04/12 05:11:47;;;;;;;;;;;;;;;5.05;70.68;100252.44;5052048;28;19931;-81
2022/04/12 05:14:12;;;;;;;;;;;;;;;5.14;70.54;100261.06;5041527;28;20393;-80
2022/04/12 05:16:37;;;;;;;;;;;;;;;5.20;70.14;100258.69;5060504;28;20121;-81
2022/04/12 05:19:03;;;;;;;;;;;;;;;5.30;69.91;100263.38;5029153;28;19970;-81
2022/04/12 05:21:28;;;;;;;;;;;;;;;5.32;70.22;100258.28;5049377;28;20008;-80
2022/04/12 05:23:54;;;;;;;;;;;;;;;5.42;70.01;100256.69;5018771;28;20007;-80
2022/04/12 05:26:19;;;;;;;;;;;;;;;5.50;69.63;100263.75;5050586;28;20325;-80
2022/04/12 05:28:45;;;;;;;;;;;;;;;5.56;69.66;100262.94;5047229;28;20011;-80
2022/04/12 05:31:10;;;;;;;;;;;;;;;5.67;69.17;100264.88;5029256;28;20340;-80
2022/04/12 05:33:35;;;;;;;;;;;;;;;5.77;68.29;100266.81;5042519;28;20063;-80
2022/04/12 05:36:01;;;;;;;;;;;;;;;5.84;68.06;100277.78;5031272;28;19921;-80
2022/04/12 05:38:26;;;;;;;;;;;;;;;5.94;68.18;100277.78;5024649;28;19921;-80
2022/04/12 05:40:51;;;;;;;;;;;;;;;6.06;68.19;100276.56;5040839;28;21379;-80
2022/04/12 05:43:17;;;;;;;;;;;;;;;6.22;66.26;100279.63;5041071;28;19925;-80
2022/04/12 05:45:42;;;;;;;;;;;;;;;6.40;65.63;100285.03;5043530;28;20571;-80
2022/04/12 05:48:08;;;;;;;;;;;;;;;6.59;64.73;100280.97;5043020;28;19921;-80
2022/04/12 05:50:33;;;;;;;;;;;;;;;6.68;62.85;100284.84;5039673;28;20020;-80
2022/04/12 05:52:59;;;;;;;;;;;;;;;6.84;62.02;100292.59;5041247;28;19931;-80
2022/04/12 05:55:24;;;;;;;;;;;;;;;6.95;61.73;100298.84;5042393;28;19925;-80
2022/04/12 05:57:51;;;;;;;;;;;;;;;6.99;61.37;100292.09;5042866;28;20008;-80
2022/04/12 06:00:18;;;;;;;;;;;;;;;7.17;60.17;100286.41;5042761;28;20393;-80
2022/04/12 06:02:44;;;;;;;;;;;;;;;7.22;58.14;100288.75;5027349;28;19921;-80
2022/04/12 06:05:09;;;;;;;;;;;;;;;7.28;60.07;100287.09;5024038;28;19975;-80
2022/04/12 06:07:36;;;;;;;;;;;;;;;7.47;59.56;100283.78;5023778;28;19921;-80
2022/04/12 06:10:02;;;;;;;;;;;;;;;7.77;58.84;100285.81;5022767;28;19925;-80
2022/04/12 06:12:27;;;;;;;;;;;;;;;7.81;56.87;100291.28;5025215;28;19932;-80
2022/04/12 06:14:53;;;;;;;;;;;;;;;7.95;56.86;100291.91;5038007;28;19967;-80
2022/04/12 06:17:18;;;;;;;;;;;;;;;8.17;57.36;100288.91;5021490;28;19924;-80
2022/04/12 06:19:44;;;;;;;;;;;;;;;8.30;55.63;100296.22;5006087;28;20458;-80
2022/04/12 06:22:09;;;;;;;;;;;;;;;8.13;55.81;100293.69;5031195;28;20004;-80
2022/04/12 06:24:35;;;;;;;;;;;;;;;8.18;55.72;100304.25;5029123;28;20329;-81
2022/04/12 06:27:00;;;;;;;;;;;;;;;8.14;55.67;100307.06;5020771;28;19921;-80
2022/04/12 06:29:25;;;;;;;;;;;;;;;7.97;56.12;100310.81;5023608;28;19973;-81
2022/04/12 06:31:51;;;;;;;;;;;;;;;7.91;55.12;100304.97;5022768;28;19933;-80
2022/04/12 06:34:16;;;;;;;;;;;;;;;7.72;56.23;100307.56;5020440;28;19928;-81
2022/04/12 06:36:41;;;;;;;;;;;;;;;7.86;55.96;100312.94;5027123;28;20374;-80
2022/04/12 06:39:07;;;;;;;;;;;;;;;7.94;56.14;100311.66;5026866;28;19937;-80
2022/04/12 06:41:32;;;;;;;;;;;;;;;8.15;55.83;100316.94;5025469;28;19928;-80
2022/04/12 06:43:58;;;;;;;;;;;;;;;8.40;54.99;100311.91;5024938;28;20458;-80
2022/04/12 06:46:23;;;;;;;;;;;;;;;8.40;54.79;100317.44;5022868;28;19921;-80
2022/04/12 06:48:48;;;;;;;;;;;;;;;8.33;54.98;100323.03;5025947;28;20014;-80
2022/04/12 06:51:14;;;;;;;;;;;;;;;8.46;54.26;100323.25;5028620;28;20298;-80
2022/04/12 06:53:39;;;;;;;;;;;;;;;8.69;54.60;100312.28;5022586;28;20036;-80
2022/04/12 06:56:06;;;;;;;;;;;;;;;8.76;53.91;100322.44;5019644;28;19922;-80
2022/04/12 06:58:33;;;;;;;;;;;;;;;8.76;53.54;100311.38;5021454;28;19932;-80
2022/04/12 07:00:58;;;;;;;;;;;;;;;8.76;54.69;100325.22;5022136;28;19921;-80
2022/04/12 07:03:24;;;;;;;;;;;;;;;9.16;54.06;100326.97;5021240;28;19928;-80
2022/04/12 07:05:54;;;;;;;;;;;;;;;9.45;52.82;100329.25;5021746;28;19921;-80
2022/04/12 07:08:24;;;;;;;;;;;;;;;9.70;51.95;100330.38;5020591;28;20272;-79
2022/04/12 07:10:50;;;;;;;;;;;;;;;9.99;51.23;100330.59;5021301;28;19975;-80
2022/04/12 07:13:16;;;;;;;;;;;;;;;10.20;51.65;100332.19;5022143;28;19983;-80
2022/04/12 07:15:43;;;;;;;;;;;;;;;10.41;50.02;100342.06;5022385;28;20405;-80
2022/04/12 07:18:09;;;;;;;;;;;;;;;10.63;50.32;100341.19;5021680;28;20004;-78
2022/04/12 07:20:34;;;;;;;;;;;;;;;10.91;49.92;100336.97;5020969;28;20063;-78
2022/04/12 07:23:00;;;;;;;;;;;;;;;11.09;49.54;100337.31;5020862;28;19984;-83
2022/04/12 07:25:26;;;;;;;;;;;;;;;11.33;49.36;100337.16;5019776;28;19943;-83
2022/04/12 07:27:52;;;;;;;;;;;;;;;11.19;48.29;100339.09;5020599;28;19921;-82
2022/04/12 07:30:18;;;;;;;;;;;;;;;11.14;48.65;100347.91;5020657;28;20414;-82
2022/04/12 07:32:43;;;;;;;;;;;;;;;11.23;48.67;100350.88;5020596;28;19925;-82
2022/04/12 07:35:09;;;;;;;;;;;;;;;11.39;48.02;100341.75;5015284;28;19921;-82
2022/04/12 07:37:35;;;;;;;;;;;;;;;11.65;47.33;100353.78;5036276;28;19921;-83
2022/04/12 07:40:01;;;;;;;;;;;;;;;12.00;46.66;100352.88;5026777;28;19917;-82
2022/04/12 07:42:26;;;;;;;;;;;;;;;12.28;46.73;100353.31;5027731;28;19925;-80
2022/04/12 07:44:52;;;;;;;;;;;;;;;12.18;45.39;100357.16;5030486;28;19913;-80
2022/04/12 07:47:17;;;;;;;;;;;;;;;12.36;45.10;100349.88;5030483;28;20430;-80
2022/04/12 07:49:43;;;;;;;;;;;;;;;12.19;45.25;100347.59;5028975;28;20329;-80
2022/04/12 07:52:08;;;;;;;;;;;;;;;12.25;45.68;100351.41;5025606;28;20012;-80
2022/04/12 07:54:33;;;;;;;;;;;;;;;12.35;45.57;100350.31;5032788;28;20046;-80
2022/04/12 07:56:59;;;;;;;;;;;;;;;12.25;47.12;100349.41;5028767;28;19922;-80
2022/04/12 07:59:24;;;;;;;;;;;;;;;12.59;45.90;100334.88;5028601;28;20390;-80
2022/04/12 08:01:49;;;;;;;;;;;;;;;12.86;45.96;100340.78;5031126;28;19925;-82
2022/04/12 08:04:15;;;;;;;;;;;;;;;13.12;44.68;100341.59;5017486;28;20349;-82
2022/04/12 08:06:40;;;;;;;;;;;;;;;13.02;44.68;100340.69;5026321;28;19959;-82
2022/04/12 08:09:06;;;;;;;;;;;;;;;12.99;43.82;100338.00;5028643;28;19968;-82
2022/04/12 08:11:31;;;;;;;;;;;;;;;12.91;43.53;100337.47;5024704;28;19921;-82
2022/04/12 08:13:57;;;;;;;;;;;;;;;13.11;44.54;100319.75;5026419;28;19929;-82
2022/04/12 08:16:22;;;;;;;;;;;;;;;13.33;43.75;100329.00;5029618;28;20021;-82
2022/04/12 08:18:48;;;;;;;;;;;;;;;12.99;44.68;100338.78;5029847;28;19921;-82
2022/04/12 08:21:13;;;;;;;;;;;;;;;13.01;42.57;100341.94;5008416;28;19922;-82
2022/04/12 08:23:39;;;;;;;;;;;;;;;12.74;43.55;100349.16;5030390;28;19929;-82
2022/04/12 08:26:04;;;;;;;;;;;;;;;12.93;43.50;100350.94;5025617;28;19952;-82
2022/04/12 08:28:29;;;;;;;;;;;;;;;13.42;43.22;100348.59;5025754;28;19921;-82
2022/04/12 08:30:55;;;;;;;;;;;;;;;13.11;42.09;100348.41;5025245;28;19933;-82
2022/04/12 08:33:20;;;;;;;;;;;;;;;13.12;43.81;100347.19;5027660;28;19921;-82
2022/04/12 08:35:46;;;;;;;;;;;;;;;13.25;43.36;100353.53;5004733;28;20391;-82
2022/04/12 08:38:11;;;;;;;;;;;;;;;13.28;43.20;100349.06;5021615;28;19917;-82
2022/04/12 08:40:37;;;;;;;;;;;;;;;13.22;43.99;100348.06;5027732;28;19972;-82
2022/04/12 08:43:02;;;;;;;;;;;;;;;12.83;43.70;100355.59;5025093;28;20457;-82
2022/04/12 08:45:28;;;;;;;;;;;;;;;13.06;43.75;100346.91;5024108;28;20398;-82
2022/04/12 08:47:53;;;;;;;;;;;;;;;12.95;43.57;100360.41;5025015;28;19927;-82
2022/04/12 08:50:19;;;;;;;;;;;;;;;13.23;43.86;100357.97;5018404;28;20508;-82
2022/04/12 08:52:45;;;;;;;;;;;;;;;13.15;44.10;100362.19;5020858;28;20378;-82
2022/04/12 08:55:11;;;;;;;;;;;;;;;13.44;43.49;100357.28;5001120;28;19971;-82
2022/04/12 08:57:36;;;;;;;;;;;;;;;13.80;43.59;100357.63;5020265;28;19925;-82
2022/04/12 09:00:03;;;;;;;;;;;;;;;14.15;41.73;100358.38;5018816;28;19964;-82
2022/04/12 09:02:28;;;;;;;;;;;;;;;14.40;41.48;100360.28;5018333;28;19921;-82
2022/04/12 09:04:54;;;;;;;;;;;;;;;14.19;41.11;100366.63;5020190;28;20279;-82
2022/04/12 09:07:23;;;;;;;;;;;;;;;14.17;41.46;100364.28;5018342;28;20326;-83
2022/04/12 09:09:48;;;;;;;;;;;;;;;13.93;41.18;100358.34;5024256;28;20007;-82
2022/04/12 09:12:14;;;;;;;;;;;;;;;14.08;41.71;100360.63;5025938;28;20020;-82
2022/04/12 09:14:46;;;;;;;;;;;;;;;14.18;41.71;100354.69;5027342;28;19968;-83
2022/04/12 09:17:13;;;;;;;;;;;;;;;14.34;42.05;100350.91;5029024;28;19976;-79
2022/04/12 09:19:45;;;;;;;;;;;;;;;14.40;42.24;100340.75;5025251;28;20604;-79
2022/04/12 09:22:12;;;;;;;;;;;;;;;14.73;41.70;100341.06;5027890;28;19974;-80
2022/04/12 09:24:42;;;;;;;;;;;;;;;14.62;41.68;100343.50;5023510;28;19929;-79
2022/04/12 09:27:10;;;;;;;;;;;;;;;14.99;41.80;100338.88;5029768;28;20350;-79
2022/04/12 09:29:37;;;;;;;;;;;;;;;15.12;39.29;100331.16;5028016;28;19921;-79
2022/04/12 09:32:03;;;;;;;;;;;;;;;15.36;38.61;100329.38;5014392;28;19941;-79
2022/04/12 09:34:28;;;;;;;;;;;;;;;15.49;40.53;100332.78;5013768;28;20379;-79
2022/04/12 09:36:54;;;;;;;;;;;;;;;15.76;39.75;100324.47;5016759;28;20077;-82
2022/04/12 09:39:19;;;;;;;;;;;;;;;16.15;38.98;100325.53;5030151;28;19921;-83
2022/04/12 09:41:48;;;;;;;;;;;;;;;16.13;38.86;100316.06;5032563;28;19921;-83
2022/04/12 09:44:16;;;;;;;;;;;;;;;16.56;39.54;100318.47;5031981;28;19974;-82
2022/04/12 09:46:42;;;;;;;;;;;;;;;16.67;38.11;100324.34;5014415;28;19928;-83
2022/04/12 09:49:07;;;;;;;;;;;;;;;16.81;38.00;100319.34;5031519;28;19917;-83
2022/04/12 09:51:36;;;;;;;;;;;;;;;16.58;35.51;100313.19;5033164;28;19980;-82
2022/04/12 09:54:02;;;;;;;;;;;;;;;15.98;36.21;100315.13;5033113;28;19917;-83
2022/04/12 09:56:29;;;;;;;;;;;;;;;16.13;37.20;100313.25;5033422;28;19932;-79
2022/04/12 09:58:55;;;;;;;;;;;;;;;16.20;36.78;100313.72;5032679;28;19917;-79
2022/04/12 10:01:20;;;;;;;;;;;;;;;16.02;36.84;100318.53;5032877;28;20040;-79
2022/04/12 10:03:47;;;;;;;;;;;;;;;16.17;36.58;100311.09;5032060;28;20011;-79
2022/04/12 10:06:15;;;;;;;;;;;;;;;16.20;37.33;100312.94;5032848;28;19921;-79
2022/04/12 10:08:41;;;;;;;;;;;;;;;16.26;36.73;100309.03;5031751;28;19956;-79
2022/04/12 10:11:07;;;;;;;;;;;;;;;16.22;36.85;100304.84;5027363;28;19928;-79
2022/04/12 10:13:32;;;;;;;;;;;;;;;15.98;35.56;100301.13;5027692;28;19925;-79
2022/04/12 10:15:57;;;;;;;;;;;;;;;16.09;37.22;100298.66;5029466;28;20386;-79
2022/04/12 10:18:23;;;;;;;;;;;;;;;16.27;35.85;100293.00;5011226;28;20341;-79
2022/04/12 10:20:48;;;;;;;;;;;;;;;16.46;35.59;100283.31;5026571;28;19953;-79
2022/04/12 10:23:15;;;;;;;;;;;;;;;16.69;36.85;100285.47;5011485;28;19925;-80
2022/04/12 10:25:40;;;;;;;;;;;;;;;16.57;36.09;100280.84;5027799;28;19920;-79
2022/04/12 10:28:05;;;;;;;;;;;;;;;16.75;35.99;100279.97;5025119;28;19984;-79
2022/04/12 10:30:32;;;;;;;;;;;;;;;16.87;35.29;100281.78;5003101;28;19932;-79
2022/04/12 10:32:57;;;;;;;;;;;;;;;16.90;36.12;100275.25;5022699;28;19921;-79
2022/04/12 10:35:22;;;;;;;;;;;;;;;17.03;34.79;100283.41;5020782;28;19932;-79
2022/04/12 10:37:48;;;;;;;;;;;;;;;16.91;34.13;100290.00;5025125;28;19921;-79
2022/04/12 10:40:13;;;;;;;;;;;;;;;16.58;35.33;100282.38;5028056;28;19932;-79
2022/04/12 10:42:39;;;;;;;;;;;;;;;16.56;35.83;100279.25;5027142;28;20267;-79
2022/04/12 10:45:04;;;;;;;;;;;;;;;16.23;36.56;100272.81;5026792;28;20448;-79
2022/04/12 10:47:33;;;;;;;;;;;;;;;16.43;36.36;100267.47;5029664;28;19928;-79
2022/04/12 10:50:00;;;;;;;;;;;;;;;16.82;37.37;100270.47;5029125;28;20378;-79
2022/04/12 10:52:35;;;;;;;;;;;;;;;17.12;35.09;100274.97;5027020;28;19917;-79
2022/04/12 10:55:02;;;;;;;;;;;;;;;16.84;34.28;100268.72;5027811;28;20275;-79
2022/04/12 10:57:28;;;;;;;;;;;;;;;16.67;34.01;100276.75;5030833;28;20390;-79
2022/04/12 10:59:56;;;;;;;;;;;;;;;16.86;35.30;100271.06;5027274;28;19928;-79
2022/04/12 11:02:26;;;;;;;;;;;;;;;16.86;34.95;100273.88;5026826;28;19936;-79
2022/04/12 11:04:52;;;;;;;;;;;;;;;16.76;35.12;100271.09;5031423;28;19967;-79
2022/04/12 11:07:27;;;;;;;;;;;;;;;16.90;35.44;100274.47;5031920;28;19921;-79
2022/04/12 11:10:05;;;;;;;;;;;;;;;16.83;35.98;100264.38;5019363;28;19925;-79
2022/04/12 11:12:30;;;;;;;;;;;;;;;17.38;37.69;100269.66;5030322;28;19921;-79
2022/04/12 11:15:16;;;;;;;;;;;;;;;17.16;34.15;100264.34;5016964;28;19921;-79
2022/04/12 11:17:41;;;;;;;;;;;;;;;16.39;34.72;100261.25;5024663;28;19921;-79
2022/04/12 11:20:09;;;;;;;;;;;;;;;16.13;35.90;100274.09;5026620;28;19951;-79
2022/04/12 11:22:40;;;;;;;;;;;;;;;16.27;34.51;100270.63;5027358;28;19925;-79
2022/04/12 11:25:12;;;;;;;;;;;;;;;16.81;35.41;100264.09;5027878;28;20044;-78
2022/04/12 11:27:38;;;;;;;;;;;;;;;16.93;34.19;100256.72;5041980;28;19925;-78
2022/04/12 11:30:04;;;;;;;;;;;;;;;17.10;35.10;100260.66;5034392;28;19966;-82
2022/04/12 11:32:29;;;;;;;;;;;;;;;17.41;33.80;100247.03;5028558;28;19921;-82
2022/04/12 11:34:54;;;;;;;;;;;;;;;17.59;32.79;100252.53;5011455;28;20445;-82
2022/04/12 11:37:22;;;;;;;;;;;;;;;17.79;33.00;100242.72;5012255;28;19988;-82
2022/04/12 11:39:47;;;;;;;;;;;;;;;17.70;32.58;100241.53;5031346;28;19948;-81
2022/04/12 11:42:14;;;;;;;;;;;;;;;18.17;33.09;100239.81;5025594;28;20322;-82
2022/04/12 11:44:39;;;;;;;;;;;;;;;18.40;33.37;100230.50;5010201;28;19929;-82
2022/04/12 11:47:07;;;;;;;;;;;;;;;18.52;31.63;100226.66;5028421;28;19936;-81
2022/04/12 11:49:36;;;;;;;;;;;;;;;18.66;31.89;100227.88;5030525;28;19917;-84
2022/04/12 11:52:02;;;;;;;;;;;;;;;19.03;31.83;100225.34;4993210;28;19921;-86
2022/04/12 11:54:29;;;;;;;;;;;;;;;19.17;31.31;100223.75;5022550;28;20041;-85
2022/04/12 11:57:07;;;;;;;;;;;;;;;19.31;30.67;100226.47;5009131;28;19944;-85
2022/04/12 11:59:34;;;;;;;;;;;;;;;19.16;29.86;100222.19;5025569;28;19925;-85
2022/04/12 12:02:01;;;;;;;;;;;;;;;19.45;31.09;100222.84;5026531;28;19925;-85
2022/04/12 12:04:31;;;;;;;;;;;;;;;19.36;30.15;100225.00;5023703;28;19930;-85
2022/04/12 12:06:58;;;;;;;;;;;;;;;18.99;30.75;100225.56;5009228;28;20168;-85
2022/04/12 12:09:23;;;;;;;;;;;;;;;18.77;32.43;100225.22;5027703;28;19925;-80
2022/04/12 12:11:49;;;;;;;;;;;;;;;18.89;31.56;100231.78;5027495;28;19921;-78
2022/04/12 12:14:15;;;;;;;;;;;;;;;18.46;31.68;100222.97;5026316;28;20022;-78
2022/04/12 12:16:41;;;;;;;;;;;;;;;18.83;33.20;100223.28;5031161;28;19956;-78
2022/04/12 12:19:11;;;;;;;;;;;;;;;18.82;31.04;100221.75;5030895;28;19952;-76
2022/04/12 12:21:36;;;;;;;;;;;;;;;18.66;31.68;100213.06;5030891;28;19927;-77
2022/04/12 12:24:05;;;;;;;;;;;;;;;18.77;32.55;100219.63;5030823;28;19921;-79
2022/04/12 12:26:30;;;;;;;;;;;;;;;18.76;32.05;100206.84;5030122;28;19944;-77
2022/04/12 12:28:56;;;;;;;;;;;;;;;18.85;32.70;100215.13;5027228;28;19939;-77
2022/04/12 12:31:24;;;;;;;;;;;;;;;19.10;33.75;100213.69;5018761;28;20019;-77
2022/04/12 12:33:49;;;;;;;;;;;;;;;19.42;32.85;100211.78;5023779;28;20052;-77
2022/04/12 12:36:18;;;;;;;;;;;;;;;19.55;31.55;100210.19;5018162;28;19925;-77
2022/04/12 12:38:44;;;;;;;;;;;;;;;19.78;30.21;100199.13;5031081;28;19960;-78
2022/04/12 12:41:09;;;;;;;;;;;;;;;19.68;30.28;100211.84;5030467;28;19956;-77